sensor_id;sensor_type;location;lat;lon;timestamp;pressure;altitude;pressure_sealevel;temperature;humidity
21828;BME280;11076;47.942;11.804;2023-04-08T00:04:08;94370.16;;;3.16;100.00
21828;BME280;11076;47.942;11.804;2023-04-08T00:09:11;94366.75;;;3.07;100.00
21828;BME280;11076;47.942;11.804;2023-04-08T00:14:13;94376.00;;;3.03;100.00
21828;BME280;11076;47.942;11.804;2023-04-08T00:19:16;94377.34;;;2.99;100.00
21828;BME280;11076;47.942;11.804;2023-04-08T00:24:19;94380.00;;;2.99;100.00
21828;BME280;11076;47.942;11.804;2023-04-08T00:29:21;94379.34;;;2.97;100.00
21828;BME280;11076;47.942;11.804;2023-04-08T00:34:24;94383.81;;;2.88;100.00
21828;BME280;11076;47.942;11.804;2023-04-08T00:39:27;94381.56;;;2.77;100.00
21828;BME280;11076;47.942;11.804;2023-04-08T00:44:30;94386.22;;;2.75;100.00
21828;BME280;11076;47.942;11.804;2023-04-08T00:49:32;94387.56;;;2.63;100.00
21828;BME280;11076;47.942;11.804;2023-04-08T00:54:36;94395.03;;;2.51;100.00
21828;BME280;11076;47.942;11.804;2023-04-08T00:59:39;94388.91;;;2.50;100.00
21828;BME280;11076;47.942;11.804;2023-04-08T01:09:52;94385.81;;;2.47;100.00
21828;BME280;11076;47.942;11.804;2023-04-08T01:14:59;94381.81;;;2.43;100.00
21828;BME280;11076;47.942;11.804;2023-04-08T01:20:04;94389.75;;;2.43;100.00
21828;BME280;11076;47.942;11.804;2023-04-08T01:25:20;94387.81;;;2.28;100.00
21828;BME280;11076;47.942;11.804;2023-04-08T01:30:24;94387.81;;;2.20;100.00
21828;BME280;11076;47.942;11.804;2023-04-08T01:35:27;94384.03;;;2.14;100.00
21828;BME280;11076;47.942;11.804;2023-04-08T01:40:33;94386.66;;;2.14;100.00
21828;BME280;11076;47.942;11.804;2023-04-08T01:45:37;94390.16;;;2.15;100.00
21828;BME280;11076;47.942;11.804;2023-04-08T01:50:43;94393.28;;;2.02;100.00
21828;BME280;11076;47.942;11.804;2023-04-08T01:55:51;94387.34;;;2.08;100.00
21828;BME280;11076;47.942;11.804;2023-04-08T02:00:57;94394.59;;;2.06;100.00
21828;BME280;11076;47.942;11.804;2023-04-08T02:06:00;94396.94;;;2.01;100.00
21828;BME280;11076;47.942;11.804;2023-04-08T02:11:02;94394.44;;;1.99;100.00
21828;BME280;11076;47.942;11.804;2023-04-08T02:16:18;94397.41;;;2.05;100.00
21828;BME280;11076;47.942;11.804;2023-04-08T02:21:47;94395.09;;;2.02;100.00
21828;BME280;11076;47.942;11.804;2023-04-08T02:26:53;94391.16;;;1.97;100.00
21828;BME280;11076;47.942;11.804;2023-04-08T02:32:00;94397.41;;;1.96;100.00
21828;BME280;11076;47.942;11.804;2023-04-08T02:37:03;94392.28;;;1.95;100.00
21828;BME280;11076;47.942;11.804;2023-04-08T02:42:06;94404.50;;;1.96;100.00
21828;BME280;11076;47.942;11.804;2023-04-08T02:47:08;94399.22;;;1.96;100.00
21828;BME280;11076;47.942;11.804;2023-04-08T02:52:11;94397.75;;;2.02;100.00
21828;BME280;11076;47.942;11.804;2023-04-08T02:57:13;94397.41;;;2.05;100.00
21828;BME280;11076;47.942;11.804;2023-04-08T03:02:18;94397.56;;;2.11;100.00
21828;BME280;11076;47.942;11.804;2023-04-08T03:07:20;94396.09;;;2.17;100.00
21828;BME280;11076;47.942;11.804;2023-04-08T03:12:22;94393.25;;;2.27;100.00
21828;BME280;11076;47.942;11.804;2023-04-08T03:17:25;94393.38;;;2.42;100.00
21828;BME280;11076;47.942;11.804;2023-04-08T03:22:27;94399.00;;;2.47;100.00
21828;BME280;11076;47.942;11.804;2023-04-08T03:27:30;94401.41;;;2.56;100.00
21828;BME280;11076;47.942;11.804;2023-04-08T03:32:32;94409.50;;;2.63;100.00
21828;BME280;11076;47.942;11.804;2023-04-08T03:37:35;94396.28;;;2.71;100.00
21828;BME280;11076;47.942;11.804;2023-04-08T03:42:37;94407.13;;;2.76;100.00
21828;BME280;11076;47.942;11.804;2023-04-08T03:47:40;94400.84;;;2.86;100.00
21828;BME280;11076;47.942;11.804;2023-04-08T03:52:42;94404.63;;;2.91;100.00
21828;BME280;11076;47.942;11.804;2023-04-08T03:57:45;94403.44;;;2.94;100.00
21828;BME280;11076;47.942;11.804;2023-04-08T04:02:47;94415.31;;;2.98;100.00
21828;BME280;11076;47.942;11.804;2023-04-08T04:07:50;94417.75;;;3.08;100.00
21828;BME280;11076;47.942;11.804;2023-04-08T04:12:52;94419.22;;;3.10;100.00
21828;BME280;11076;47.942;11.804;2023-04-08T04:17:55;94422.06;;;3.09;100.00
21828;BME280;11076;47.942;11.804;2023-04-08T04:22:57;94427.66;;;3.06;100.00
21828;BME280;11076;47.942;11.804;2023-04-08T04:28:00;94425.56;;;3.01;100.00
21828;BME280;11076;47.942;11.804;2023-04-08T04:33:04;94431.50;;;2.95;100.00
21828;BME280;11076;47.942;11.804;2023-04-08T04:38:06;94436.63;;;2.88;100.00
21828;BME280;11076;47.942;11.804;2023-04-08T04:43:13;94439.28;;;2.88;100.00
21828;BME280;11076;47.942;11.804;2023-04-08T04:48:16;94442.75;;;2.89;100.00
21828;BME280;11076;47.942;11.804;2023-04-08T04:53:19;94441.91;;;2.88;100.00
21828;BME280;11076;47.942;11.804;2023-04-08T04:58:21;94445.53;;;2.95;100.00
21828;BME280;11076;47.942;11.804;2023-04-08T05:03:24;94443.88;;;3.03;100.00
21828;BME280;11076;47.942;11.804;2023-04-08T05:08:26;94447.78;;;3.15;100.00
21828;BME280;11076;47.942;11.804;2023-04-08T05:13:29;94449.00;;;3.35;100.00
21828;BME280;11076;47.942;11.804;2023-04-08T05:18:33;94454.19;;;3.52;100.00
21828;BME280;11076;47.942;11.804;2023-04-08T05:23:35;94448.84;;;3.68;100.00
21828;BME280;11076;47.942;11.804;2023-04-08T05:28:38;94458.94;;;3.88;100.00
21828;BME280;11076;47.942;11.804;2023-04-08T05:33:40;94452.84;;;4.10;100.00
21828;BME280;11076;47.942;11.804;2023-04-08T05:38:42;94458.31;;;4.24;100.00
21828;BME280;11076;47.942;11.804;2023-04-08T05:43:45;94459.84;;;4.41;100.00
21828;BME280;11076;47.942;11.804;2023-04-08T05:48:47;94467.38;;;4.52;100.00
21828;BME280;11076;47.942;11.804;2023-04-08T05:53:50;94476.28;;;4.51;100.00
21828;BME280;11076;47.942;11.804;2023-04-08T05:58:53;94481.34;;;4.61;100.00
21828;BME280;11076;47.942;11.804;2023-04-08T06:03:55;94470.16;;;4.74;100.00
21828;BME280;11076;47.942;11.804;2023-04-08T06:08:58;94466.97;;;4.93;100.00
21828;BME280;11076;47.942;11.804;2023-04-08T06:14:00;94474.44;;;4.90;100.00
21828;BME280;11076;47.942;11.804;2023-04-08T06:19:03;94472.19;;;5.02;100.00
21828;BME280;11076;47.942;11.804;2023-04-08T06:24:05;94477.63;;;5.15;100.00
21828;BME280;11076;47.942;11.804;2023-04-08T06:29:07;94471.25;;;5.24;100.00
21828;BME280;11076;47.942;11.804;2023-04-08T06:34:10;94466.13;;;5.37;100.00
21828;BME280;11076;47.942;11.804;2023-04-08T06:39:12;94465.75;;;5.41;100.00
21828;BME280;11076;47.942;11.804;2023-04-08T06:44:18;94472.84;;;5.55;100.00
21828;BME280;11076;47.942;11.804;2023-04-08T06:49:20;94469.88;;;5.80;100.00
21828;BME280;11076;47.942;11.804;2023-04-08T06:54:23;94475.13;;;5.94;100.00
21828;BME280;11076;47.942;11.804;2023-04-08T06:59:25;94480.38;;;5.88;100.00
21828;BME280;11076;47.942;11.804;2023-04-08T07:04:27;94476.91;;;5.87;100.00
21828;BME280;11076;47.942;11.804;2023-04-08T07:09:30;94481.09;;;5.96;100.00
21828;BME280;11076;47.942;11.804;2023-04-08T07:14:32;94471.75;;;6.01;100.00
21828;BME280;11076;47.942;11.804;2023-04-08T07:19:35;94476.81;;;5.95;100.00
21828;BME280;11076;47.942;11.804;2023-04-08T07:24:37;94486.31;;;5.90;100.00
21828;BME280;11076;47.942;11.804;2023-04-08T07:29:40;94484.28;;;5.92;100.00
21828;BME280;11076;47.942;11.804;2023-04-08T07:34:42;94494.97;;;5.62;100.00
21828;BME280;11076;47.942;11.804;2023-04-08T07:39:45;94498.31;;;5.49;100.00
21828;BME280;11076;47.942;11.804;2023-04-08T07:44:47;94501.50;;;5.30;100.00
21828;BME280;11076;47.942;11.804;2023-04-08T07:49:50;94509.34;;;5.08;100.00
21828;BME280;11076;47.942;11.804;2023-04-08T07:54:52;94513.16;;;4.91;100.00
21828;BME280;11076;47.942;11.804;2023-04-08T07:59:54;94506.41;;;5.03;100.00
21828;BME280;11076;47.942;11.804;2023-04-08T08:04:57;94514.66;;;5.08;100.00
21828;BME280;11076;47.942;11.804;2023-04-08T08:09:59;94517.41;;;5.15;100.00
21828;BME280;11076;47.942;11.804;2023-04-08T08:15:03;94527.66;;;5.18;100.00
21828;BME280;11076;47.942;11.804;2023-04-08T08:20:06;94529.09;;;5.21;100.00
21828;BME280;11076;47.942;11.804;2023-04-08T08:25:09;94531.78;;;5.35;100.00
21828;BME280;11076;47.942;11.804;2023-04-08T08:30:11;94539.06;;;5.63;100.00
21828;BME280;11076;47.942;11.804;2023-04-08T08:35:14;94535.31;;;5.43;99.45
21828;BME280;11076;47.942;11.804;2023-04-08T08:40:16;94543.56;;;5.18;100.00
21828;BME280;11076;47.942;11.804;2023-04-08T08:45:19;94552.19;;;4.82;100.00
21828;BME280;11076;47.942;11.804;2023-04-08T08:50:22;94550.59;;;4.73;100.00
21828;BME280;11076;47.942;11.804;2023-04-08T08:55:24;94558.50;;;4.96;100.00
21828;BME280;11076;47.942;11.804;2023-04-08T09:00:39;94551.81;;;4.85;100.00
21828;BME280;11076;47.942;11.804;2023-04-08T09:05:57;94560.38;;;4.87;100.00
21828;BME280;11076;47.942;11.804;2023-04-08T09:11:19;94562.53;;;4.92;100.00
21828;BME280;11076;47.942;11.804;2023-04-08T09:16:24;94572.28;;;4.91;98.18
21828;BME280;11076;47.942;11.804;2023-04-08T09:21:27;94567.75;;;5.15;97.15
21828;BME280;11076;47.942;11.804;2023-04-08T09:26:30;94573.91;;;5.30;95.58
21828;BME280;11076;47.942;11.804;2023-04-08T09:31:37;94570.13;;;5.10;97.77
21828;BME280;11076;47.942;11.804;2023-04-08T09:36:42;94576.25;;;5.10;98.73
21828;BME280;11076;47.942;11.804;2023-04-08T09:41:49;94571.34;;;5.52;98.62
21828;BME280;11076;47.942;11.804;2023-04-08T09:46:58;94574.00;;;5.52;96.18
21828;BME280;11076;47.942;11.804;2023-04-08T09:52:10;94574.34;;;6.08;97.74
21828;BME280;11076;47.942;11.804;2023-04-08T09:57:15;94578.75;;;6.37;96.51
21828;BME280;11076;47.942;11.804;2023-04-08T10:02:24;94571.53;;;6.31;92.79
21828;BME280;11076;47.942;11.804;2023-04-08T10:07:30;94581.66;;;6.21;92.53
21828;BME280;11076;47.942;11.804;2023-04-08T10:12:33;94580.84;;;6.42;94.33
21828;BME280;11076;47.942;11.804;2023-04-08T10:17:35;94572.94;;;6.12;94.37
21828;BME280;11076;47.942;11.804;2023-04-08T10:22:47;94577.09;;;5.70;95.00
21828;BME280;11076;47.942;11.804;2023-04-08T10:27:50;94575.16;;;5.94;94.72
21828;BME280;11076;47.942;11.804;2023-04-08T10:32:56;94575.13;;;6.24;94.48
21828;BME280;11076;47.942;11.804;2023-04-08T10:38:02;94569.94;;;6.80;92.44
21828;BME280;11076;47.942;11.804;2023-04-08T10:43:05;94577.53;;;7.05;90.52
21828;BME280;11076;47.942;11.804;2023-04-08T10:48:18;94569.50;;;7.54;91.02
21828;BME280;11076;47.942;11.804;2023-04-08T10:53:26;94573.13;;;7.47;89.96
21828;BME280;11076;47.942;11.804;2023-04-08T10:58:29;94573.25;;;7.67;89.37
21828;BME280;11076;47.942;11.804;2023-04-08T11:03:32;94561.34;;;7.56;89.36
21828;BME280;11076;47.942;11.804;2023-04-08T11:08:36;94569.16;;;7.64;89.21
21828;BME280;11076;47.942;11.804;2023-04-08T11:13:40;94575.94;;;7.39;88.40
21828;BME280;11076;47.942;11.804;2023-04-08T11:18:49;94579.13;;;7.27;87.69
21828;BME280;11076;47.942;11.804;2023-04-08T11:23:51;94566.38;;;7.86;87.26
21828;BME280;11076;47.942;11.804;2023-04-08T11:28:55;94560.53;;;7.62;85.86
21828;BME280;11076;47.942;11.804;2023-04-08T11:33:58;94578.66;;;7.17;88.04
21828;BME280;11076;47.942;11.804;2023-04-08T11:39:05;94569.31;;;6.78;89.24
21828;BME280;11076;47.942;11.804;2023-04-08T11:44:08;94570.59;;;6.39;90.41
21828;BME280;11076;47.942;11.804;2023-04-08T11:49:10;94573.06;;;6.04;92.58
21828;BME280;11076;47.942;11.804;2023-04-08T11:54:28;94579.28;;;5.82;94.60
21828;BME280;11076;47.942;11.804;2023-04-08T11:59:30;94584.25;;;5.70;95.30
21828;BME280;11076;47.942;11.804;2023-04-08T12:04:33;94570.69;;;5.80;95.53
21828;BME280;11076;47.942;11.804;2023-04-08T12:09:35;94573.47;;;5.71;97.02
21828;BME280;11076;47.942;11.804;2023-04-08T12:14:38;94589.66;;;5.62;98.39
21828;BME280;11076;47.942;11.804;2023-04-08T12:19:40;94588.09;;;5.52;99.52
21828;BME280;11076;47.942;11.804;2023-04-08T12:24:43;94583.50;;;5.46;100.00
21828;BME280;11076;47.942;11.804;2023-04-08T12:29:45;94594.03;;;5.40;100.00
21828;BME280;11076;47.942;11.804;2023-04-08T12:34:48;94598.13;;;5.27;100.00
21828;BME280;11076;47.942;11.804;2023-04-08T12:39:50;94603.63;;;5.41;100.00
21828;BME280;11076;47.942;11.804;2023-04-08T12:44:53;94601.06;;;5.62;100.00
21828;BME280;11076;47.942;11.804;2023-04-08T12:49:56;94602.06;;;5.46;100.00
21828;BME280;11076;47.942;11.804;2023-04-08T12:54:58;94603.56;;;5.11;100.00
21828;BME280;11076;47.942;11.804;2023-04-08T13:00:01;94608.59;;;5.06;100.00
21828;BME280;11076;47.942;11.804;2023-04-08T13:05:04;94610.03;;;4.93;100.00
21828;BME280;11076;47.942;11.804;2023-04-08T13:10:07;94610.88;;;5.09;100.00
21828;BME280;11076;47.942;11.804;2023-04-08T13:15:10;94607.59;;;5.07;100.00
21828;BME280;11076;47.942;11.804;2023-04-08T13:20:12;94610.78;;;5.02;100.00
21828;BME280;11076;47.942;11.804;2023-04-08T13:25:14;94613.03;;;4.90;100.00
21828;BME280;11076;47.942;11.804;2023-04-08T13:30:17;94616.44;;;4.99;100.00
21828;BME280;11076;47.942;11.804;2023-04-08T13:35:19;94618.00;;;4.93;100.00
21828;BME280;11076;47.942;11.804;2023-04-08T13:40:22;94627.41;;;4.73;100.00
21828;BME280;11076;47.942;11.804;2023-04-08T13:45:25;94623.00;;;4.88;100.00
21828;BME280;11076;47.942;11.804;2023-04-08T13:50:27;94624.59;;;4.74;100.00
21828;BME280;11076;47.942;11.804;2023-04-08T13:55:30;94633.06;;;4.70;100.00
21828;BME280;11076;47.942;11.804;2023-04-08T14:00:32;94629.53;;;4.54;100.00
21828;BME280;11076;47.942;11.804;2023-04-08T14:05:35;94635.47;;;4.56;100.00
21828;BME280;11076;47.942;11.804;2023-04-08T14:10:37;94633.47;;;4.58;100.00
21828;BME280;11076;47.942;11.804;2023-04-08T14:15:40;94640.06;;;4.63;100.00
21828;BME280;11076;47.942;11.804;2023-04-08T14:20:43;94648.06;;;4.54;100.00
21828;BME280;11076;47.942;11.804;2023-04-08T14:25:45;94648.13;;;4.46;100.00
21828;BME280;11076;47.942;11.804;2023-04-08T14:30:48;94657.19;;;4.52;100.00
21828;BME280;11076;47.942;11.804;2023-04-08T14:35:51;94662.69;;;4.42;100.00
21828;BME280;11076;47.942;11.804;2023-04-08T14:40:54;94661.72;;;4.35;100.00
21828;BME280;11076;47.942;11.804;2023-04-08T14:45:56;94667.72;;;4.29;100.00
21828;BME280;11076;47.942;11.804;2023-04-08T14:50:59;94665.72;;;4.31;100.00
21828;BME280;11076;47.942;11.804;2023-04-08T14:56:01;94678.47;;;4.27;100.00
21828;BME280;11076;47.942;11.804;2023-04-08T15:01:04;94683.56;;;4.37;100.00
21828;BME280;11076;47.942;11.804;2023-04-08T15:06:06;94674.00;;;4.59;100.00
21828;BME280;11076;47.942;11.804;2023-04-08T15:11:09;94682.97;;;4.58;100.00
21828;BME280;11076;47.942;11.804;2023-04-08T15:16:11;94687.78;;;4.54;100.00
21828;BME280;11076;47.942;11.804;2023-04-08T15:21:13;94699.41;;;4.45;100.00
21828;BME280;11076;47.942;11.804;2023-04-08T15:26:16;94692.53;;;4.36;100.00
21828;BME280;11076;47.942;11.804;2023-04-08T15:31:18;94701.50;;;4.58;100.00
21828;BME280;11076;47.942;11.804;2023-04-08T15:36:21;94695.56;;;4.56;100.00
21828;BME280;11076;47.942;11.804;2023-04-08T15:41:23;94704.31;;;4.56;100.00
21828;BME280;11076;47.942;11.804;2023-04-08T15:46:26;94699.34;;;4.62;100.00
21828;BME280;11076;47.942;11.804;2023-04-08T15:51:28;94704.63;;;4.62;100.00
21828;BME280;11076;47.942;11.804;2023-04-08T15:56:31;94701.94;;;4.70;100.00
21828;BME280;11076;47.942;11.804;2023-04-08T16:01:34;94710.59;;;4.87;100.00
21828;BME280;11076;47.942;11.804;2023-04-08T16:06:37;94709.00;;;4.77;100.00
21828;BME280;11076;47.942;11.804;2023-04-08T16:11:39;94709.00;;;4.77;100.00
21828;BME280;11076;47.942;11.804;2023-04-08T16:16:42;94713.06;;;4.88;100.00
21828;BME280;11076;47.942;11.804;2023-04-08T16:21:45;94716.38;;;4.59;100.00
21828;BME280;11076;47.942;11.804;2023-04-08T16:26:47;94723.34;;;4.60;100.00
21828;BME280;11076;47.942;11.804;2023-04-08T16:31:50;94724.75;;;4.71;100.00
21828;BME280;11076;47.942;11.804;2023-04-08T16:36:54;94730.31;;;4.53;100.00
21828;BME280;11076;47.942;11.804;2023-04-08T16:41:56;94735.75;;;4.60;100.00
21828;BME280;11076;47.942;11.804;2023-04-08T16:46:59;94733.94;;;4.60;100.00
21828;BME280;11076;47.942;11.804;2023-04-08T16:52:02;94735.22;;;4.64;100.00
21828;BME280;11076;47.942;11.804;2023-04-08T16:57:05;94732.25;;;4.59;100.00
21828;BME280;11076;47.942;11.804;2023-04-08T17:02:07;94732.53;;;4.41;100.00
21828;BME280;11076;47.942;11.804;2023-04-08T17:07:09;94735.50;;;4.46;100.00
21828;BME280;11076;47.942;11.804;2023-04-08T17:12:12;94744.41;;;4.45;100.00
21828;BME280;11076;47.942;11.804;2023-04-08T17:17:15;94743.72;;;4.51;100.00
21828;BME280;11076;47.942;11.804;2023-04-08T17:22:17;94749.53;;;4.47;100.00
21828;BME280;11076;47.942;11.804;2023-04-08T17:27:20;94759.69;;;4.35;100.00
21828;BME280;11076;47.942;11.804;2023-04-08T17:32:23;94759.53;;;4.36;100.00
21828;BME280;11076;47.942;11.804;2023-04-08T17:37:25;94762.78;;;4.47;100.00
21828;BME280;11076;47.942;11.804;2023-04-08T17:42:28;94769.41;;;4.43;100.00
21828;BME280;11076;47.942;11.804;2023-04-08T17:47:30;94773.41;;;4.38;100.00
21828;BME280;11076;47.942;11.804;2023-04-08T17:52:33;94774.91;;;4.33;100.00
21828;BME280;11076;47.942;11.804;2023-04-08T17:57:35;94777.53;;;4.41;100.00
21828;BME280;11076;47.942;11.804;2023-04-08T18:02:38;94783.19;;;4.38;100.00
21828;BME280;11076;47.942;11.804;2023-04-08T18:07:42;94781.19;;;4.40;100.00
21828;BME280;11076;47.942;11.804;2023-04-08T18:12:45;94794.09;;;4.35;100.00
21828;BME280;11076;47.942;11.804;2023-04-08T18:17:49;94799.06;;;4.38;100.00
21828;BME280;11076;47.942;11.804;2023-04-08T18:22:51;94808.97;;;4.44;100.00
21828;BME280;11076;47.942;11.804;2023-04-08T18:27:53;94809.28;;;4.41;100.00
21828;BME280;11076;47.942;11.804;2023-04-08T18:32:56;94808.63;;;4.39;100.00
21828;BME280;11076;47.942;11.804;2023-04-08T18:37:58;94818.94;;;4.34;100.00
21828;BME280;11076;47.942;11.804;2023-04-08T18:43:01;94831.00;;;4.36;100.00
21828;BME280;11076;47.942;11.804;2023-04-08T18:48:06;94829.84;;;4.31;100.00
21828;BME280;11076;47.942;11.804;2023-04-08T18:53:09;94833.13;;;4.41;100.00
21828;BME280;11076;47.942;11.804;2023-04-08T18:58:11;94840.75;;;4.44;100.00
21828;BME280;11076;47.942;11.804;2023-04-08T19:03:14;94844.72;;;4.40;100.00
21828;BME280;11076;47.942;11.804;2023-04-08T19:08:16;94845.69;;;4.47;100.00
21828;BME280;11076;47.942;11.804;2023-04-08T19:13:19;94851.38;;;4.28;100.00
21828;BME280;11076;47.942;11.804;2023-04-08T19:18:23;94852.03;;;4.22;100.00
21828;BME280;11076;47.942;11.804;2023-04-08T19:23:25;94861.75;;;4.37;100.00
21828;BME280;11076;47.942;11.804;2023-04-08T19:28:28;94861.44;;;4.41;100.00
21828;BME280;11076;47.942;11.804;2023-04-08T19:33:30;94865.06;;;4.48;100.00
21828;BME280;11076;47.942;11.804;2023-04-08T19:38:32;94868.53;;;4.48;100.00
21828;BME280;11076;47.942;11.804;2023-04-08T19:43:35;94861.91;;;4.52;100.00
21828;BME280;11076;47.942;11.804;2023-04-08T19:48:38;94866.22;;;4.37;100.00
21828;BME280;11076;47.942;11.804;2023-04-08T19:53:40;94871.19;;;4.40;100.00
21828;BME280;11076;47.942;11.804;2023-04-08T19:58:43;94869.88;;;4.36;100.00
21828;BME280;11076;47.942;11.804;2023-04-08T20:03:45;94869.41;;;4.24;100.00
21828;BME280;11076;47.942;11.804;2023-04-08T20:08:51;94871.22;;;4.24;100.00
21828;BME280;11076;47.942;11.804;2023-04-08T20:13:54;94866.59;;;4.17;100.00
21828;BME280;11076;47.942;11.804;2023-04-08T20:18:56;94875.19;;;4.19;100.00
21828;BME280;11076;47.942;11.804;2023-04-08T20:23:59;94878.69;;;4.04;100.00
21828;BME280;11076;47.942;11.804;2023-04-08T20:29:02;94876.53;;;3.99;100.00
21828;BME280;11076;47.942;11.804;2023-04-08T20:34:04;94875.06;;;3.96;100.00
21828;BME280;11076;47.942;11.804;2023-04-08T20:39:10;94880.16;;;3.73;100.00
21828;BME280;11076;47.942;11.804;2023-04-08T20:44:13;94877.53;;;3.82;100.00
21828;BME280;11076;47.942;11.804;2023-04-08T20:49:15;94876.88;;;3.79;100.00
21828;BME280;11076;47.942;11.804;2023-04-08T20:54:19;94873.06;;;3.74;100.00
21828;BME280;11076;47.942;11.804;2023-04-08T20:59:22;94869.59;;;3.82;100.00
21828;BME280;11076;47.942;11.804;2023-04-08T21:04:24;94878.53;;;3.72;100.00
21828;BME280;11076;47.942;11.804;2023-04-08T21:09:28;94884.47;;;3.66;100.00
21828;BME280;11076;47.942;11.804;2023-04-08T21:14:30;94887.44;;;3.71;100.00
21828;BME280;11076;47.942;11.804;2023-04-08T21:19:33;94879.84;;;3.76;100.00
21828;BME280;11076;47.942;11.804;2023-04-08T21:24:35;94895.22;;;3.97;100.00
21828;BME280;11076;47.942;11.804;2023-04-08T21:29:39;94890.41;;;4.09;100.00
21828;BME280;11076;47.942;11.804;2023-04-08T21:34:41;94893.72;;;4.11;100.00
21828;BME280;11076;47.942;11.804;2023-04-08T21:39:43;94895.56;;;4.03;100.00
21828;BME280;11076;47.942;11.804;2023-04-08T21:44:46;94902.16;;;4.07;100.00
21828;BME280;11076;47.942;11.804;2023-04-08T21:49:48;94897.38;;;4.10;100.00
21828;BME280;11076;47.942;11.804;2023-04-08T21:54:51;94900.03;;;4.10;100.00
21828;BME280;11076;47.942;11.804;2023-04-08T21:59:53;94899.53;;;3.98;100.00
21828;BME280;11076;47.942;11.804;2023-04-08T22:04:56;94898.53;;;3.67;100.00
21828;BME280;11076;47.942;11.804;2023-04-08T22:09:59;94899.66;;;3.56;100.00
21828;BME280;11076;47.942;11.804;2023-04-08T22:15:03;94907.44;;;3.57;100.00
21828;BME280;11076;47.942;11.804;2023-04-08T22:20:05;94899.31;;;3.51;100.00
21828;BME280;11076;47.942;11.804;2023-04-08T22:25:08;94903.59;;;3.52;100.00
21828;BME280;11076;47.942;11.804;2023-04-08T22:30:11;94898.66;;;3.49;100.00
21828;BME280;11076;47.942;11.804;2023-04-08T22:35:14;94896.00;;;3.41;100.00
21828;BME280;11076;47.942;11.804;2023-04-08T22:40:17;94900.63;;;3.30;100.00
21828;BME280;11076;47.942;11.804;2023-04-08T22:45:19;94903.75;;;3.34;100.00
21828;BME280;11076;47.942;11.804;2023-04-08T22:50:22;94900.56;;;3.22;100.00
21828;BME280;11076;47.942;11.804;2023-04-08T22:55:24;94911.47;;;3.11;100.00
21828;BME280;11076;47.942;11.804;2023-04-08T23:00:28;94901.19;;;3.08;100.00
21828;BME280;11076;47.942;11.804;2023-04-08T23:05:30;94908.66;;;3.12;100.00
21828;BME280;11076;47.942;11.804;2023-04-08T23:10:33;94903.84;;;3.08;100.00
21828;BME280;11076;47.942;11.804;2023-04-08T23:15:35;94909.59;;;3.03;100.00
21828;BME280;11076;47.942;11.804;2023-04-08T23:20:38;94909.28;;;3.06;100.00
21828;BME280;11076;47.942;11.804;2023-04-08T23:25:40;94915.06;;;3.10;100.00
21828;BME280;11076;47.942;11.804;2023-04-08T23:30:42;94913.25;;;3.10;100.00
21828;BME280;11076;47.942;11.804;2023-04-08T23:35:45;94912.94;;;3.13;100.00
21828;BME280;11076;47.942;11.804;2023-04-08T23:40:49;94909.94;;;3.08;100.00
21828;BME280;11076;47.942;11.804;2023-04-08T23:45:52;94914.06;;;3.03;100.00
21828;BME280;11076;47.942;11.804;2023-04-08T23:50:54;94909.47;;;3.05;100.00
21828;BME280;11076;47.942;11.804;2023-04-08T23:56:07;94917.38;;;3.05;100.00
